Matsuyama Maru No.11 — JD3027 — position and weather

sailwx.info

Track history (hours):
 
Tides and Currents Weather Stations Pressure Air Temp Water Temp Dewpoint Dewpoint Depression Visibility Wind Speed Wind Dir Waves Ship Positions

Matsuyama Maru No.11

Last reported at 2018-Jun-24 00:09 UTC. Time now 2018-Jun-24 07:15 UTC.
Position N 35°05' E 139°44'.

Length 104 m; draft 6.7 m.

Type: Tanker. MMSI: 431001151.

Date/timePositionNaut miles runAvg speedWind from/ knotsBaromVisibWave heightAir tempDewpointWater temp
2018-Jun-24 00:09N 35°05' E 139°44'213.8
2018-Jun-23 23:59N 35°07' E 139°45'713.3
2018-Jun-23 23:30N 35°13' E 139°46'611.7
2018-Jun-23 23:00N 35°19' E 139°43'612.2
2018-Jun-23 22:30N 35°25' E 139°43'611.8
2018-Jun-23 22:00N 35°29' E 139°48'2 3.4
2018-Jun-23 21:30N 35°31' E 139°46'0 0.0
2018-Jun-23 21:00N 35°31' E 139°46'0 0.0
2018-Jun-23 20:30N 35°31' E 139°46'0 0.0
2018-Jun-23 20:00N 35°31' E 139°46'0 0.0
2018-Jun-23 19:30N 35°31' E 139°46'0 0.0
2018-Jun-23 19:00N 35°31' E 139°46'0 0.0
2018-Jun-23 18:30N 35°31' E 139°46'0 0.0
2018-Jun-23 18:00N 35°31' E 139°46'0 0.0
2018-Jun-23 17:30N 35°31' E 139°46'0 0.1
2018-Jun-23 17:00N 35°31' E 139°46'0 0.1
2018-Jun-23 16:30N 35°31' E 139°46'0 0.0
2018-Jun-23 15:59N 35°31' E 139°46'0 0.0
2018-Jun-23 15:30N 35°31' E 139°46'0 0.0
2018-Jun-23 15:00N 35°31' E 139°46'0 0.0
2018-Jun-23 14:30N 35°31' E 139°46'0 0.0
2018-Jun-23 14:00N 35°31' E 139°46'0 0.0
2018-Jun-23 13:30N 35°31' E 139°46'0 0.0
2018-Jun-23 13:00N 35°31' E 139°46'0 0.0
2018-Jun-23 12:30N 35°31' E 139°46'0 0.0
2018-Jun-23 12:00N 35°31' E 139°46'0 0.0
2018-Jun-23 11:30N 35°31' E 139°46'0 0.0
2018-Jun-23 11:00N 35°31' E 139°46'0 0.0
2018-Jun-23 10:30N 35°31' E 139°46'0 0.0
2018-Jun-23 10:00N 35°31' E 139°46'0 0.0
2018-Jun-23 09:30N 35°31' E 139°46'0 0.0
2018-Jun-23 09:00N 35°31' E 139°46'0 0.0
2018-Jun-23 08:30N 35°31' E 139°46'0 0.0
2018-Jun-23 08:00N 35°31' E 139°46'0 0.0
2018-Jun-23 07:30N 35°31' E 139°46'0 0.0
2018-Jun-23 07:00N 35°31' E 139°46'0 0.0
2018-Jun-23 06:30N 35°31' E 139°46'0 0.0
2018-Jun-23 06:00N 35°31' E 139°46'0 0.0
2018-Jun-23 05:30N 35°31' E 139°46'0 0.0
2018-Jun-23 05:00N 35°31' E 139°46'0 0.0
2018-Jun-23 04:30N 35°31' E 139°46'0 0.1
2018-Jun-23 04:00N 35°31' E 139°46'2 4.2
2018-Jun-23 03:30N 35°30' E 139°44'3 5.8
2018-Jun-23 03:00N 35°27' E 139°44'3 6.5
2018-Jun-23 02:31N 35°24' E 139°46'0 0.1
2018-Jun-23 01:53N 35°24' E 139°46'0 0.0
2018-Jun-23 01:29N 35°24' E 139°46'0 0.0
2018-Jun-23 00:59N 35°24' E 139°46'0 0.0
2018-Jun-23 00:26N 35°24' E 139°46'0 0.1
2018-Jun-22 23:56N 35°24' E 139°45'0 0.0
2018-Jun-22 23:26N 35°24' E 139°45'0 0.0
2018-Jun-22 22:59N 35°24' E 139°45'0 0.0
2018-Jun-22 22:29N 35°24' E 139°45'0 0.1
2018-Jun-22 21:59N 35°24' E 139°45'0 0.0
2018-Jun-22 21:29N 35°24' E 139°45'0 0.0
2018-Jun-22 20:59N 35°24' E 139°45'0 0.0
2018-Jun-22 20:29N 35°24' E 139°45'0 0.0
2018-Jun-22 19:50N 35°24' E 139°45'0 0.0
2018-Jun-22 19:26N 35°24' E 139°45'0 0.0
2018-Jun-22 18:59N 35°24' E 139°45'0 0.0
2018-Jun-22 18:29N 35°24' E 139°45'0 0.0
2018-Jun-22 17:58N 35°24' E 139°45'4 7.8
2018-Jun-22 17:31N 35°21' E 139°43'611.8
2018-Jun-22 17:00N 35°15' E 139°47'612.9
2018-Jun-22 16:30N 35°09' E 139°47'  
2018-Jun-16 14:41N 35°06' E 139°44'213.9
2018-Jun-16 14:30N 35°08' E 139°45'713.9
2018-Jun-16 14:00N 35°15' E 139°46'612.7
2018-Jun-16 13:30N 35°20' E 139°42'3 6.9
2018-Jun-16 13:00N 35°24' E 139°44'0 0.1
2018-Jun-16 12:30N 35°24' E 139°44'0 0.0
2018-Jun-16 11:57N 35°24' E 139°44'0 0.0
2018-Jun-16 11:30N 35°24' E 139°44'0 0.0
2018-Jun-16 11:00N 35°24' E 139°44'0 0.0
2018-Jun-16 10:30N 35°24' E 139°44'0 0.0
2018-Jun-16 10:00N 35°24' E 139°44'0 0.0
2018-Jun-16 09:30N 35°24' E 139°44'0 0.1
2018-Jun-16 09:00N 35°24' E 139°44'0 0.0
2018-Jun-16 08:30N 35°24' E 139°44'0 0.0
2018-Jun-16 08:00N 35°24' E 139°44'0 0.0
2018-Jun-16 07:30N 35°24' E 139°44'0 0.0
2018-Jun-16 07:00N 35°24' E 139°44'0 0.0
2018-Jun-16 06:30N 35°24' E 139°44'0 0.2
2018-Jun-16 06:00N 35°24' E 139°44'0 0.1
2018-Jun-16 05:21N 35°24' E 139°44'0 0.0
2018-Jun-16 05:00N 35°24' E 139°44'0 0.0
2018-Jun-16 04:30N 35°24' E 139°44'0 0.0
2018-Jun-16 04:00N 35°24' E 139°44'0 0.0
2018-Jun-16 03:30N 35°24' E 139°44'0 0.0
2018-Jun-16 03:00N 35°24' E 139°44'0 0.0
2018-Jun-16 02:27N 35°24' E 139°44'0 0.0
2018-Jun-16 02:00N 35°24' E 139°44'0 0.0
2018-Jun-16 01:30N 35°24' E 139°44'0 0.0
2018-Jun-16 01:00N 35°24' E 139°44'0 0.0
2018-Jun-16 00:30N 35°24' E 139°44'0 0.0
2018-Jun-16 00:00N 35°24' E 139°44'0 0.0
2018-Jun-15 23:30N 35°24' E 139°44'0 0.0
2018-Jun-15 23:00N 35°24' E 139°44'2 4.4
2018-Jun-15 22:30N 35°25' E 139°46'4 8.3
2018-Jun-15 22:00N 35°29' E 139°48'2 4.1
2018-Jun-15 21:30N 35°31' E 139°46'0 0.0
2018-Jun-15 21:00N 35°31' E 139°46'0 0.0
2018-Jun-15 20:30N 35°31' E 139°46'0 0.0
2018-Jun-15 20:00N 35°31' E 139°46'0 0.0
2018-Jun-15 19:30N 35°31' E 139°46'0 0.0
2018-Jun-15 19:00N 35°31' E 139°46'0 0.0
2018-Jun-15 18:29N 35°31' E 139°46'0 0.0
2018-Jun-15 18:00N 35°31' E 139°46'0 0.0
2018-Jun-15 17:30N 35°31' E 139°46'0 0.0
2018-Jun-15 17:00N 35°31' E 139°46'0 0.0
2018-Jun-15 16:30N 35°31' E 139°46'0 0.0
2018-Jun-15 16:00N 35°31' E 139°46'0 0.0
2018-Jun-15 15:30N 35°31' E 139°46'0 0.0
2018-Jun-15 15:00N 35°31' E 139°46'0 0.0
2018-Jun-15 14:30N 35°31' E 139°46'0 0.0
2018-Jun-15 14:00N 35°31' E 139°46'0 0.0
2018-Jun-15 13:30N 35°31' E 139°46'0 0.0
2018-Jun-15 13:00N 35°31' E 139°46'0 0.0
2018-Jun-15 12:30N 35°31' E 139°46'0 0.0
2018-Jun-15 12:00N 35°31' E 139°46'0 0.0
2018-Jun-15 11:30N 35°31' E 139°46'0 0.0
2018-Jun-15 11:00N 35°31' E 139°46'0 0.0
2018-Jun-15 10:30N 35°31' E 139°46'0 0.0
2018-Jun-15 10:00N 35°31' E 139°46'0 0.0
2018-Jun-15 09:30N 35°31' E 139°46'0 0.0
2018-Jun-15 09:00N 35°31' E 139°46'0 0.0
2018-Jun-15 08:30N 35°31' E 139°46'0 0.0
2018-Jun-15 08:00N 35°31' E 139°46'0 0.0
2018-Jun-15 07:30N 35°31' E 139°46'0 0.0
2018-Jun-15 07:00N 35°31' E 139°46'0 0.0
2018-Jun-15 06:30N 35°31' E 139°46'0 0.0
2018-Jun-15 05:59N 35°31' E 139°46'0 0.0
2018-Jun-15 05:30N 35°31' E 139°46'0 0.0
2018-Jun-15 05:00N 35°31' E 139°46'0 0.0
2018-Jun-15 04:30N 35°31' E 139°46'0 0.0
2018-Jun-15 04:00N 35°31' E 139°46'0 0.1
2018-Jun-15 03:30N 35°31' E 139°46'3 5.6
2018-Jun-15 03:00N 35°29' E 139°43'4 7.0
2018-Jun-15 02:30N 35°26' E 139°43'1 1.1
2018-Jun-15 02:01N 35°26' E 139°44'2 3.9
2018-Jun-15 01:30N 35°24' E 139°45'0 0.0
2018-Jun-15 01:00N 35°24' E 139°45'0 0.1
2018-Jun-15 00:30N 35°24' E 139°45'0 0.0
2018-Jun-14 23:57N 35°24' E 139°45'0 0.0
2018-Jun-14 23:27N 35°24' E 139°45'0 0.1
2018-Jun-14 22:57N 35°24' E 139°45'1 2.0
2018-Jun-14 22:30N 35°25' E 139°46'4 7.1
2018-Jun-14 22:00N 35°28' E 139°48'3 5.2
2018-Jun-14 21:30N 35°31' E 139°46'0 0.0
2018-Jun-14 21:00N 35°31' E 139°46'0 0.0
2018-Jun-14 20:30N 35°31' E 139°46'0 0.0
2018-Jun-14 20:00N 35°31' E 139°46'0 0.0
2018-Jun-14 19:30N 35°31' E 139°46'0 0.0
2018-Jun-14 18:59N 35°31' E 139°46'0 0.0
2018-Jun-14 18:30N 35°31' E 139°46'0 0.0
2018-Jun-14 18:00N 35°31' E 139°46'0 0.0
2018-Jun-14 17:30N 35°31' E 139°46'0 0.0
2018-Jun-14 17:00N 35°31' E 139°46'0 0.0
2018-Jun-14 16:30N 35°31' E 139°46'0 0.0
2018-Jun-14 16:00N 35°31' E 139°46'0 0.0
2018-Jun-14 15:30N 35°31' E 139°46'0 0.0
2018-Jun-14 15:00N 35°31' E 139°46'0 0.0
2018-Jun-14 14:30N 35°31' E 139°46'0 0.0
2018-Jun-14 14:00N 35°31' E 139°46'0 0.0
2018-Jun-14 13:30N 35°31' E 139°46'0 0.0
2018-Jun-14 13:00N 35°31' E 139°46'0 0.0
2018-Jun-14 12:30N 35°31' E 139°46'0 0.0
2018-Jun-14 12:00N 35°31' E 139°46'0 0.0
2018-Jun-14 11:30N 35°31' E 139°46'0 0.0
2018-Jun-14 10:59N 35°31' E 139°46'0 0.0
2018-Jun-14 10:30N 35°31' E 139°46'0 0.0
2018-Jun-14 10:00N 35°31' E 139°46'0 0.0
2018-Jun-14 09:30N 35°31' E 139°46'0 0.0
2018-Jun-14 09:00N 35°31' E 139°46'0 0.0
2018-Jun-14 08:30N 35°31' E 139°46'0 0.0
2018-Jun-14 08:00N 35°31' E 139°46'0 0.0
2018-Jun-14 07:30N 35°31' E 139°46'1 2.1
2018-Jun-14 07:00N 35°30' E 139°45'3 7.0
2018-Jun-14 06:30N 35°27' E 139°43'4 7.9
2018-Jun-14 06:00N 35°24' E 139°46'0 0.1
2018-Jun-14 05:28N 35°25' E 139°46'0 0.0
2018-Jun-14 04:58N 35°25' E 139°46'0 0.0
2018-Jun-14 04:28N 35°25' E 139°46'0 0.0
2018-Jun-14 03:58N 35°25' E 139°46'0 0.0
2018-Jun-14 03:28N 35°25' E 139°46'0 0.1
2018-Jun-14 02:55N 35°25' E 139°46'0 0.0
2018-Jun-14 02:28N 35°25' E 139°46'0 0.0
2018-Jun-14 01:52N 35°24' E 139°46'0 0.0
2018-Jun-14 01:28N 35°24' E 139°46'0 0.0
2018-Jun-14 00:37N 35°24' E 139°46'0 0.0
2018-Jun-14 00:25N 35°24' E 139°46'  
Track history (hours):
 
Tides and Currents Weather Stations Pressure Air Temp Water Temp Dewpoint Dewpoint Depression Visibility Wind Speed Wind Dir Waves Ship Positions

Matsuyama Maru No.11

Last reported at 2018-Jun-24 00:09 UTC. Time now 2018-Jun-24 07:15 UTC.
Position N 35°05' E 139°44'.

Length 104 m; draft 6.7 m.

Type: Tanker. MMSI: 431001151.

Date/timePositionNaut miles runAvg speedWind from/ knotsBaromVisibWave heightAir tempDewpointWater temp
2018-Jun-24 00:09N 35°05' E 139°44'213.8
2018-Jun-23 23:59N 35°07' E 139°45'713.3
2018-Jun-23 23:30N 35°13' E 139°46'611.7
2018-Jun-23 23:00N 35°19' E 139°43'612.2
2018-Jun-23 22:30N 35°25' E 139°43'611.8
2018-Jun-23 22:00N 35°29' E 139°48'2 3.4
2018-Jun-23 21:30N 35°31' E 139°46'0 0.0
2018-Jun-23 21:00N 35°31' E 139°46'0 0.0
2018-Jun-23 20:30N 35°31' E 139°46'0 0.0
2018-Jun-23 20:00N 35°31' E 139°46'0 0.0
2018-Jun-23 19:30N 35°31' E 139°46'0 0.0
2018-Jun-23 19:00N 35°31' E 139°46'0 0.0
2018-Jun-23 18:30N 35°31' E 139°46'0 0.0
2018-Jun-23 18:00N 35°31' E 139°46'0 0.0
2018-Jun-23 17:30N 35°31' E 139°46'0 0.1
2018-Jun-23 17:00N 35°31' E 139°46'0 0.1
2018-Jun-23 16:30N 35°31' E 139°46'0 0.0
2018-Jun-23 15:59N 35°31' E 139°46'0 0.0
2018-Jun-23 15:30N 35°31' E 139°46'0 0.0
2018-Jun-23 15:00N 35°31' E 139°46'0 0.0
2018-Jun-23 14:30N 35°31' E 139°46'0 0.0
2018-Jun-23 14:00N 35°31' E 139°46'0 0.0
2018-Jun-23 13:30N 35°31' E 139°46'0 0.0
2018-Jun-23 13:00N 35°31' E 139°46'0 0.0
2018-Jun-23 12:30N 35°31' E 139°46'0 0.0
2018-Jun-23 12:00N 35°31' E 139°46'0 0.0
2018-Jun-23 11:30N 35°31' E 139°46'0 0.0
2018-Jun-23 11:00N 35°31' E 139°46'0 0.0
2018-Jun-23 10:30N 35°31' E 139°46'0 0.0
2018-Jun-23 10:00N 35°31' E 139°46'0 0.0
2018-Jun-23 09:30N 35°31' E 139°46'0 0.0
2018-Jun-23 09:00N 35°31' E 139°46'0 0.0
2018-Jun-23 08:30N 35°31' E 139°46'0 0.0
2018-Jun-23 08:00N 35°31' E 139°46'0 0.0
2018-Jun-23 07:30N 35°31' E 139°46'0 0.0
2018-Jun-23 07:00N 35°31' E 139°46'0 0.0
2018-Jun-23 06:30N 35°31' E 139°46'0 0.0
2018-Jun-23 06:00N 35°31' E 139°46'0 0.0
2018-Jun-23 05:30N 35°31' E 139°46'0 0.0
2018-Jun-23 05:00N 35°31' E 139°46'0 0.0
2018-Jun-23 04:30N 35°31' E 139°46'0 0.1
2018-Jun-23 04:00N 35°31' E 139°46'2 4.2
2018-Jun-23 03:30N 35°30' E 139°44'3 5.8
2018-Jun-23 03:00N 35°27' E 139°44'3 6.5
2018-Jun-23 02:31N 35°24' E 139°46'0 0.1
2018-Jun-23 01:53N 35°24' E 139°46'0 0.0
2018-Jun-23 01:29N 35°24' E 139°46'0 0.0
2018-Jun-23 00:59N 35°24' E 139°46'0 0.0
2018-Jun-23 00:26N 35°24' E 139°46'0 0.1
2018-Jun-22 23:56N 35°24' E 139°45'0 0.0
2018-Jun-22 23:26N 35°24' E 139°45'0 0.0
2018-Jun-22 22:59N 35°24' E 139°45'0 0.0
2018-Jun-22 22:29N 35°24' E 139°45'0 0.1
2018-Jun-22 21:59N 35°24' E 139°45'0 0.0
2018-Jun-22 21:29N 35°24' E 139°45'0 0.0
2018-Jun-22 20:59N 35°24' E 139°45'0 0.0
2018-Jun-22 20:29N 35°24' E 139°45'0 0.0
2018-Jun-22 19:50N 35°24' E 139°45'0 0.0
2018-Jun-22 19:26N 35°24' E 139°45'0 0.0
2018-Jun-22 18:59N 35°24' E 139°45'0 0.0
2018-Jun-22 18:29N 35°24' E 139°45'0 0.0
2018-Jun-22 17:58N 35°24' E 139°45'4 7.8
2018-Jun-22 17:31N 35°21' E 139°43'611.8
2018-Jun-22 17:00N 35°15' E 139°47'612.9
2018-Jun-22 16:30N 35°09' E 139°47'  
2018-Jun-16 14:41N 35°06' E 139°44'213.9
2018-Jun-16 14:30N 35°08' E 139°45'713.9
2018-Jun-16 14:00N 35°15' E 139°46'612.7
2018-Jun-16 13:30N 35°20' E 139°42'3 6.9
2018-Jun-16 13:00N 35°24' E 139°44'0 0.1
2018-Jun-16 12:30N 35°24' E 139°44'0 0.0
2018-Jun-16 11:57N 35°24' E 139°44'0 0.0
2018-Jun-16 11:30N 35°24' E 139°44'0 0.0
2018-Jun-16 11:00N 35°24' E 139°44'0 0.0
2018-Jun-16 10:30N 35°24' E 139°44'0 0.0
2018-Jun-16 10:00N 35°24' E 139°44'0 0.0
2018-Jun-16 09:30N 35°24' E 139°44'0 0.1
2018-Jun-16 09:00N 35°24' E 139°44'0 0.0
2018-Jun-16 08:30N 35°24' E 139°44'0 0.0
2018-Jun-16 08:00N 35°24' E 139°44'0 0.0
2018-Jun-16 07:30N 35°24' E 139°44'0 0.0
2018-Jun-16 07:00N 35°24' E 139°44'0 0.0
2018-Jun-16 06:30N 35°24' E 139°44'0 0.2
2018-Jun-16 06:00N 35°24' E 139°44'0 0.1
2018-Jun-16 05:21N 35°24' E 139°44'0 0.0
2018-Jun-16 05:00N 35°24' E 139°44'0 0.0
2018-Jun-16 04:30N 35°24' E 139°44'0 0.0
2018-Jun-16 04:00N 35°24' E 139°44'0 0.0
2018-Jun-16 03:30N 35°24' E 139°44'0 0.0
2018-Jun-16 03:00N 35°24' E 139°44'0 0.0
2018-Jun-16 02:27N 35°24' E 139°44'0 0.0
2018-Jun-16 02:00N 35°24' E 139°44'0 0.0
2018-Jun-16 01:30N 35°24' E 139°44'0 0.0
2018-Jun-16 01:00N 35°24' E 139°44'0 0.0
2018-Jun-16 00:30N 35°24' E 139°44'0 0.0
2018-Jun-16 00:00N 35°24' E 139°44'0 0.0
2018-Jun-15 23:30N 35°24' E 139°44'0 0.0
2018-Jun-15 23:00N 35°24' E 139°44'2 4.4
2018-Jun-15 22:30N 35°25' E 139°46'4 8.3
2018-Jun-15 22:00N 35°29' E 139°48'2 4.1
2018-Jun-15 21:30N 35°31' E 139°46'0 0.0
2018-Jun-15 21:00N 35°31' E 139°46'0 0.0
2018-Jun-15 20:30N 35°31' E 139°46'0 0.0
2018-Jun-15 20:00N 35°31' E 139°46'0 0.0
2018-Jun-15 19:30N 35°31' E 139°46'0 0.0
2018-Jun-15 19:00N 35°31' E 139°46'0 0.0
2018-Jun-15 18:29N 35°31' E 139°46'0 0.0
2018-Jun-15 18:00N 35°31' E 139°46'0 0.0
2018-Jun-15 17:30N 35°31' E 139°46'0 0.0
2018-Jun-15 17:00N 35°31' E 139°46'0 0.0
2018-Jun-15 16:30N 35°31' E 139°46'0 0.0
2018-Jun-15 16:00N 35°31' E 139°46'0 0.0
2018-Jun-15 15:30N 35°31' E 139°46'0 0.0
2018-Jun-15 15:00N 35°31' E 139°46'0 0.0
2018-Jun-15 14:30N 35°31' E 139°46'0 0.0
2018-Jun-15 14:00N 35°31' E 139°46'0 0.0
2018-Jun-15 13:30N 35°31' E 139°46'0 0.0
2018-Jun-15 13:00N 35°31' E 139°46'0 0.0
2018-Jun-15 12:30N 35°31' E 139°46'0 0.0
2018-Jun-15 12:00N 35°31' E 139°46'0 0.0
2018-Jun-15 11:30N 35°31' E 139°46'0 0.0
2018-Jun-15 11:00N 35°31' E 139°46'0 0.0
2018-Jun-15 10:30N 35°31' E 139°46'0 0.0
2018-Jun-15 10:00N 35°31' E 139°46'0 0.0
2018-Jun-15 09:30N 35°31' E 139°46'0 0.0
2018-Jun-15 09:00N 35°31' E 139°46'0 0.0
2018-Jun-15 08:30N 35°31' E 139°46'0 0.0
2018-Jun-15 08:00N 35°31' E 139°46'0 0.0
2018-Jun-15 07:30N 35°31' E 139°46'0 0.0
2018-Jun-15 07:00N 35°31' E 139°46'0 0.0
2018-Jun-15 06:30N 35°31' E 139°46'0 0.0
2018-Jun-15 05:59N 35°31' E 139°46'0 0.0
2018-Jun-15 05:30N 35°31' E 139°46'0 0.0
2018-Jun-15 05:00N 35°31' E 139°46'0 0.0
2018-Jun-15 04:30N 35°31' E 139°46'0 0.0
2018-Jun-15 04:00N 35°31' E 139°46'0 0.1
2018-Jun-15 03:30N 35°31' E 139°46'3 5.6
2018-Jun-15 03:00N 35°29' E 139°43'4 7.0
2018-Jun-15 02:30N 35°26' E 139°43'1 1.1
2018-Jun-15 02:01N 35°26' E 139°44'2 3.9
2018-Jun-15 01:30N 35°24' E 139°45'0 0.0
2018-Jun-15 01:00N 35°24' E 139°45'0 0.1
2018-Jun-15 00:30N 35°24' E 139°45'0 0.0
2018-Jun-14 23:57N 35°24' E 139°45'0 0.0
2018-Jun-14 23:27N 35°24' E 139°45'0 0.1
2018-Jun-14 22:57N 35°24' E 139°45'1 2.0
2018-Jun-14 22:30N 35°25' E 139°46'4 7.1
2018-Jun-14 22:00N 35°28' E 139°48'3 5.2
2018-Jun-14 21:30N 35°31' E 139°46'0 0.0
2018-Jun-14 21:00N 35°31' E 139°46'0 0.0
2018-Jun-14 20:30N 35°31' E 139°46'0 0.0
2018-Jun-14 20:00N 35°31' E 139°46'0 0.0
2018-Jun-14 19:30N 35°31' E 139°46'0 0.0
2018-Jun-14 18:59N 35°31' E 139°46'0 0.0
2018-Jun-14 18:30N 35°31' E 139°46'0 0.0
2018-Jun-14 18:00N 35°31' E 139°46'0 0.0
2018-Jun-14 17:30N 35°31' E 139°46'0 0.0
2018-Jun-14 17:00N 35°31' E 139°46'0 0.0
2018-Jun-14 16:30N 35°31' E 139°46'0 0.0
2018-Jun-14 16:00N 35°31' E 139°46'0 0.0
2018-Jun-14 15:30N 35°31' E 139°46'0 0.0
2018-Jun-14 15:00N 35°31' E 139°46'0 0.0
2018-Jun-14 14:30N 35°31' E 139°46'0 0.0
2018-Jun-14 14:00N 35°31' E 139°46'0 0.0
2018-Jun-14 13:30N 35°31' E 139°46'0 0.0
2018-Jun-14 13:00N 35°31' E 139°46'0 0.0
2018-Jun-14 12:30N 35°31' E 139°46'0 0.0
2018-Jun-14 12:00N 35°31' E 139°46'0 0.0
2018-Jun-14 11:30N 35°31' E 139°46'0 0.0
2018-Jun-14 10:59N 35°31' E 139°46'0 0.0
2018-Jun-14 10:30N 35°31' E 139°46'0 0.0
2018-Jun-14 10:00N 35°31' E 139°46'0 0.0
2018-Jun-14 09:30N 35°31' E 139°46'0 0.0
2018-Jun-14 09:00N 35°31' E 139°46'0 0.0
2018-Jun-14 08:30N 35°31' E 139°46'0 0.0
2018-Jun-14 08:00N 35°31' E 139°46'0 0.0
2018-Jun-14 07:30N 35°31' E 139°46'1 2.1
2018-Jun-14 07:00N 35°30' E 139°45'3 7.0
2018-Jun-14 06:30N 35°27' E 139°43'4 7.9
2018-Jun-14 06:00N 35°24' E 139°46'0 0.1
2018-Jun-14 05:28N 35°25' E 139°46'0 0.0
2018-Jun-14 04:58N 35°25' E 139°46'0 0.0
2018-Jun-14 04:28N 35°25' E 139°46'0 0.0
2018-Jun-14 03:58N 35°25' E 139°46'0 0.0
2018-Jun-14 03:28N 35°25' E 139°46'0 0.1
2018-Jun-14 02:55N 35°25' E 139°46'0 0.0
2018-Jun-14 02:28N 35°25' E 139°46'0 0.0
2018-Jun-14 01:52N 35°24' E 139°46'0 0.0
2018-Jun-14 01:28N 35°24' E 139°46'0 0.0
2018-Jun-14 00:37N 35°24' E 139°46'0 0.0
2018-Jun-14 00:25N 35°24' E 139°46'  

Dump ship's entire track history